Time;durP1;ratioP1;P1;durP2;ratioP2;P2;SDS_P1;SDS_P2;PMS_P1;PMS_P2;Temp;Humidity;BMP_temperature;BMP_pressure;BME280_temperature;BME280_humidity;BME280_pressure;Samples;Min_cycle;Max_cycle;Signal;HPM_P1;HPM_P2
2023/03/25 00:00:14;;;;;;;19.08;15.55;;;;;;;12.52;52.08;99342.41;5004707;28;20121;-77
2023/03/25 00:02:40;;;;;;;18.08;14.30;;;;;;;12.32;52.59;99309.69;4973581;28;20460;-77
2023/03/25 00:05:06;;;;;;;16.00;13.77;;;;;;;12.12;52.72;99280.47;4973056;28;20487;-77
2023/03/25 00:07:32;;;;;;;20.48;15.07;;;;;;;12.26;52.64;99299.91;4973342;28;20022;-77
2023/03/25 00:09:57;;;;;;;18.63;14.95;;;;;;;12.08;52.28;99293.28;4973762;28;20034;-77
2023/03/25 00:12:23;;;;;;;18.63;15.68;;;;;;;11.94;52.72;99258.97;4973604;28;20027;-77
2023/03/25 00:14:53;;;;;;;23.58;16.23;;;;;;;12.43;52.92;99332.16;4973656;28;20018;-77
2023/03/25 00:17:22;;;;;;;21.88;15.95;;;;;;;12.42;53.16;99331.34;4973567;28;20101;-77
2023/03/25 00:19:50;;;;;;;19.90;15.15;;;;;;;12.08;53.09;99280.03;4973328;28;20018;-77
2023/03/25 00:22:19;;;;;;;20.17;15.80;;;;;;;12.16;53.13;99299.41;4973551;28;20022;-77
2023/03/25 00:24:45;;;;;;;20.00;15.27;;;;;;;12.05;53.24;99277.78;4973489;28;20051;-77
2023/03/25 00:27:10;;;;;;;21.17;16.30;;;;;;;12.04;52.87;99270.03;4973372;28;20109;-77
2023/03/25 00:29:35;;;;;;;24.95;16.80;;;;;;;11.47;53.38;99170.53;4973095;28;20508;-77
2023/03/25 00:32:01;;;;;;;23.05;16.50;;;;;;;12.35;53.60;99317.25;4973227;28;20136;-77
2023/03/25 00:34:26;;;;;;;19.42;16.17;;;;;;;12.34;53.17;99323.56;4973113;28;20023;-77
2023/03/25 00:36:52;;;;;;;20.10;15.77;;;;;;;12.17;53.43;99278.06;4973267;28;20531;-77
2023/03/25 00:39:17;;;;;;;21.08;15.30;;;;;;;12.35;53.40;99309.31;4973283;28;20030;-77
2023/03/25 00:41:43;;;;;;;17.77;14.70;;;;;;;12.37;52.88;99315.22;4973177;28;20416;-77
2023/03/25 00:44:11;;;;;;;16.40;14.70;;;;;;;12.39;53.04;99310.56;4988029;28;20171;-77
2023/03/25 00:46:37;;;;;;;16.25;14.20;;;;;;;12.37;53.13;99307.28;4971742;28;20019;-77
2023/03/25 00:49:03;;;;;;;17.73;14.80;;;;;;;12.26;53.23;99308.66;4972923;28;20018;-77
2023/03/25 00:51:30;;;;;;;17.42;14.20;;;;;;;12.31;53.53;99324.78;4972833;28;20117;-77
2023/03/25 00:54:00;;;;;;;15.73;12.73;;;;;;;11.86;53.14;99245.88;4972697;28;20027;-77
2023/03/25 00:56:26;;;;;;;13.88;12.45;;;;;;;11.79;53.27;99235.25;4972980;28;20037;-77
2023/03/25 00:58:52;;;;;;;16.27;12.82;;;;;;;12.18;53.23;99298.22;4972816;28;20488;-78
2023/03/25 01:01:26;;;;;;;15.05;12.18;;;;;;;12.13;53.22;99299.81;4973247;28;20050;-77
2023/03/25 01:03:58;;;;;;;15.52;12.45;;;;;;;11.58;53.20;99200.91;4972678;28;20025;-77
2023/03/25 01:06:35;;;;;;;17.80;12.65;;;;;;;11.99;53.03;99278.56;4972597;28;20101;-77
2023/03/25 01:09:05;;;;;;;14.02;12.27;;;;;;;11.88;53.36;99271.13;4972583;28;20019;-77
2023/03/25 01:11:37;;;;;;;16.70;12.13;;;;;;;11.73;53.40;99263.25;4972716;28;20027;-77
2023/03/25 01:14:04;;;;;;;;;;;;;;;11.62;53.98;99284.94;4973125;28;20031;-77
2023/03/25 01:16:30;;;;;;;15.05;11.73;;;;;;;11.70;53.39;99284.78;4972369;28;19909;-77
2023/03/25 01:18:55;;;;;;;12.65;11.35;;;;;;;11.11;54.39;99211.06;4971128;28;20407;-77
2023/03/25 01:21:21;;;;;;;14.68;11.30;;;;;;;11.48;53.66;99280.53;4972451;28;20457;-77
2023/03/25 01:23:47;;;;;;;21.15;16.88;;;;;;;11.42;53.95;99289.22;4972818;28;20050;-77
2023/03/25 01:26:13;;;;;;;13.70;12.15;;;;;;;11.33;53.99;99282.44;4972571;28;20562;-77
2023/03/25 01:28:40;;;;;;;13.40;11.18;;;;;;;11.12;53.99;99270.00;4972505;28;20019;-77
2023/03/25 01:31:07;;;;;;;12.05;10.23;;;;;;;10.68;54.28;99209.41;4972586;28;20023;-77
2023/03/25 01:33:33;;;;;;;11.98;10.70;;;;;;;10.67;54.23;99202.50;4972597;28;20027;-77
2023/03/25 01:35:59;;;;;;;12.23;9.98;;;;;;;11.02;54.61;99277.44;4972467;28;20023;-77
2023/03/25 01:38:26;;;;;;;11.43;9.93;;;;;;;10.39;54.74;99189.97;4972323;28;20085;-77
2023/03/25 01:40:52;;;;;;;12.02;10.32;;;;;;;10.44;54.73;99174.44;4972675;28;20027;-78
2023/03/25 01:43:18;;;;;;;13.15;11.05;;;;;;;10.46;54.74;99185.63;4972212;28;20027;-77
2023/03/25 01:45:45;;;;;;;11.50;10.18;;;;;;;10.59;54.63;99207.91;4972420;28;20023;-77
2023/03/25 01:48:17;;;;;;;10.73;9.57;;;;;;;10.63;54.87;99207.34;5003523;28;20429;-77
2023/03/25 01:50:53;;;;;;;12.48;11.18;;;;;;;11.00;55.21;99264.41;4972226;28;20026;-77
2023/03/25 01:53:19;;;;;;;13.85;11.52;;;;;;;11.02;54.71;99248.38;4972100;28;20664;-77
2023/03/25 01:55:46;;;;;;;12.45;10.80;;;;;;;11.03;54.89;99247.38;5003547;28;20039;-77
2023/03/25 01:58:17;;;;;;;11.88;10.68;;;;;;;10.93;54.90;99217.81;4972221;28;20496;-77
2023/03/25 02:00:44;;;;;;;13.85;11.07;;;;;;;10.77;54.58;99188.00;4972019;28;20103;-77
2023/03/25 02:03:12;;;;;;;13.90;12.43;;;;;;;10.76;54.86;99181.06;4972034;28;20030;-77
2023/03/25 02:05:51;;;;;;;15.65;13.02;;;;;;;10.72;54.52;99184.28;4972264;28;20022;-77
2023/03/25 02:08:17;;;;;;;16.73;14.07;;;;;;;11.08;54.77;99256.34;4986959;28;20416;-77
2023/03/25 02:10:46;;;;;;;17.85;14.07;;;;;;;11.12;54.54;99244.41;4972035;28;20031;-77
2023/03/25 02:13:13;;;;;;;15.65;13.05;;;;;;;10.39;54.25;99121.38;4972115;28;20081;-77
2023/03/25 02:16:00;;;;;;;14.40;12.50;;;;;;;11.01;54.42;99222.97;4972187;28;20027;-77
2023/03/25 02:18:50;;;;;;;15.65;12.95;;;;;;;10.75;54.24;99184.72;4972523;28;20106;-77
2023/03/25 02:21:37;;;;;;;18.35;13.10;;;;;;;11.00;54.26;99226.59;4972156;28;20030;-77
2023/03/25 02:24:52;;;;;;;14.50;12.55;;;;;;;10.90;54.92;99237.47;4972223;28;20053;-77
2023/03/25 02:27:45;;;;;;;14.18;11.82;;;;;;;10.91;54.95;99235.66;4950761;29;20033;-77
2023/03/25 02:30:19;;;;;;;14.55;11.95;;;;;;;10.92;54.90;99239.94;4972881;28;20130;-77
2023/03/25 02:32:57;;;;;;;17.98;12.50;;;;;;;10.90;53.91;99240.13;4990412;28;20479;-77
2023/03/25 02:36:02;;;;;;;13.18;11.20;;;;;;;10.87;54.45;99237.03;4975504;28;20027;-77
2023/03/25 02:38:49;;;;;;;13.77;11.73;;;;;;;10.81;54.27;99228.88;4975246;28;20053;-77
2023/03/25 02:41:18;;;;;;;13.77;12.23;;;;;;;10.50;54.71;99191.34;4990202;28;20048;-77
2023/03/25 02:43:57;;;;;;;18.73;15.50;;;;;;;9.69;54.67;99103.47;4975292;28;20029;-77
2023/03/25 02:46:25;;;;;;;14.98;12.52;;;;;;;10.40;55.01;99173.19;4975155;28;20038;-77
2023/03/25 02:48:59;;;;;;;12.30;10.77;;;;;;;10.51;54.52;99179.78;4975184;28;20018;-77
2023/03/25 02:51:42;;;;;;;14.13;12.60;;;;;;;10.70;54.21;99215.34;4975275;28;20459;-77
2023/03/25 02:54:11;;;;;;;13.75;11.45;;;;;;;10.69;54.19;99214.50;4989928;28;20149;-77
2023/03/25 02:56:42;;;;;;;14.02;11.85;;;;;;;10.15;54.12;99138.31;4974813;28;20570;-77
2023/03/25 02:59:13;;;;;;;10.60;9.57;;;;;;;10.65;54.27;99215.88;4974525;28;20027;-77
2023/03/25 03:01:39;;;;;;;9.40;8.50;;;;;;;10.66;54.38;99216.72;4989703;28;20166;-77
2023/03/25 03:04:05;;;;;;;8.68;7.78;;;;;;;10.50;54.55;99225.66;4974595;28;20030;-77
2023/03/25 03:06:37;;;;;;;8.30;7.50;;;;;;;9.92;54.67;99142.91;4989697;28;20385;-77
2023/03/25 03:09:05;;;;;;;;;;;;;;;10.02;55.63;99203.28;4975174;28;20030;-77
2023/03/25 03:11:42;;;;;;;8.77;7.88;;;;;;;9.98;55.23;99209.94;4974831;28;20314;-77
2023/03/25 03:14:14;;;;;;;8.50;7.70;;;;;;;9.98;55.99;99210.75;4974806;28;20121;-77
2023/03/25 03:16:54;;;;;;;40.40;26.45;;;;;;;9.99;55.20;99215.03;4974874;28;20023;-77
2023/03/25 03:19:26;;;;;;;80.55;46.63;;;;;;;9.98;55.46;99213.38;4974483;28;20427;-77
2023/03/25 03:22:28;;;;;;;29.35;19.52;;;;;;;10.02;55.28;99225.22;4974707;28;20420;-77
2023/03/25 03:25:09;;;;;;;13.68;11.27;;;;;;;10.05;55.20;99224.84;4974546;28;20030;-77
2023/03/25 03:28:09;;;;;;;9.52;8.57;;;;;;;10.10;54.98;99230.38;4973117;28;20487;-77
2023/03/25 03:30:50;;;;;;;8.93;8.02;;;;;;;10.14;55.19;99231.66;4972666;28;20123;-77
2023/03/25 03:33:25;;;;;;;10.43;8.55;;;;;;;9.77;55.15;99145.56;4974462;28;20472;-77
2023/03/25 03:36:01;;;;;;;14.95;9.77;;;;;;;10.16;54.92;99221.75;4974358;28;20077;-77
2023/03/25 03:38:38;;;;;;;10.65;8.80;;;;;;;10.11;54.62;99208.28;4974009;28;20023;-77
2023/03/25 03:41:07;;;;;;;14.35;10.23;;;;;;;10.19;54.56;99221.38;4972965;28;20472;-77
2023/03/25 03:43:56;;;;;;;10.32;9.25;;;;;;;9.78;54.43;99146.38;4974128;28;20105;-77
2023/03/25 03:46:29;;;;;;;11.60;9.63;;;;;;;9.84;54.63;99178.09;4973965;28;20027;-77
2023/03/25 03:48:57;;;;;;;13.32;9.48;;;;;;;10.18;55.04;99221.56;4973962;28;20033;-78
2023/03/25 03:51:30;;;;;;;12.30;9.10;;;;;;;9.86;54.78;99164.75;4989144;28;20031;-77
2023/03/25 03:54:20;;;;;;;12.90;10.45;;;;;;;10.13;54.68;99216.84;4973825;28;20046;-77
2023/03/25 03:56:52;;;;;;;14.13;10.60;;;;;;;9.62;54.67;99128.09;4973968;28;20504;-77
2023/03/25 03:59:41;;;;;;;15.63;11.68;;;;;;;10.08;54.99;99206.00;4973692;28;20087;-77
2023/03/25 04:02:22;;;;;;;14.35;10.50;;;;;;;9.67;54.65;99133.66;4973887;28;20496;-77
2023/03/25 04:04:47;;;;;;;11.60;10.05;;;;;;;9.72;54.75;99141.84;5005004;28;20034;-77
2023/03/25 04:07:21;;;;;;;12.27;10.13;;;;;;;10.10;54.80;99190.81;4973585;28;20026;-77
2023/03/25 04:10:01;;;;;;;10.65;8.63;;;;;;;9.78;54.41;99154.28;4973548;28;20029;-77
2023/03/25 04:12:29;;;;;;;8.80;7.90;;;;;;;9.95;54.63;99207.66;4974129;28;20412;-77
2023/03/25 04:14:59;;;;;;;17.83;13.05;;;;;;;9.16;54.50;99096.63;4973608;28;20033;-77
2023/03/25 04:17:24;;;;;;;13.65;11.85;;;;;;;9.61;54.66;99174.72;4973858;28;20150;-77
2023/03/25 04:19:52;;;;;;;11.60;10.40;;;;;;;9.81;54.68;99219.84;4973414;28;20040;-77
2023/03/25 04:22:20;;;;;;;11.02;9.40;;;;;;;9.73;54.78;99219.91;5004689;28;20023;-77
2023/03/25 04:24:48;;;;;;;10.40;8.38;;;;;;;9.69;54.84;99211.56;4988258;28;20042;-77
2023/03/25 04:27:15;;;;;;;9.95;8.93;;;;;;;9.14;54.74;99125.78;4973309;28;20034;-77
2023/03/25 04:29:42;;;;;;;10.48;9.30;;;;;;;9.69;54.98;99211.56;4973163;28;20523;-77
2023/03/25 04:32:09;;;;;;;9.23;8.15;;;;;;;9.47;54.90;99171.06;4972079;28;20023;-77
2023/03/25 04:34:35;;;;;;;27.40;18.33;;;;;;;9.05;54.77;99097.06;4988142;28;20480;-77
2023/03/25 04:37:00;;;;;;;15.63;12.27;;;;;;;9.45;55.24;99193.31;4973180;28;20038;-77
2023/03/25 04:39:28;;;;;;;11.07;9.80;;;;;;;9.01;55.29;99119.47;4973358;28;20109;-77
2023/03/25 04:41:55;;;;;;;11.20;8.75;;;;;;;9.42;55.66;99183.94;4973228;28;20042;-77
2023/03/25 04:44:24;;;;;;;11.40;8.98;;;;;;;9.59;55.16;99205.69;4973074;28;20392;-78
2023/03/25 04:46:51;;;;;;;13.27;11.98;;;;;;;9.16;55.38;99139.56;4973054;28;20026;-77
2023/03/25 04:49:21;;;;;;;12.07;10.30;;;;;;;9.40;55.55;99185.13;4972980;28;20101;-77
2023/03/25 04:51:51;;;;;;;13.18;11.43;;;;;;;9.54;55.51;99218.59;4987519;28;20022;-77
2023/03/25 04:54:18;;;;;;;15.23;11.68;;;;;;;9.56;55.31;99213.97;4972758;28;20034;-77
2023/03/25 04:56:46;;;;;;;14.13;11.77;;;;;;;9.61;55.11;99214.25;4972940;28;20579;-77
2023/03/25 04:59:12;;;;;;;14.70;12.77;;;;;;;9.66;55.18;99209.28;5003775;28;20492;-77
2023/03/25 05:01:40;;;;;;;15.68;13.00;;;;;;;9.65;54.81;99196.25;4972686;28;20089;-77
2023/03/25 05:04:07;;;;;;;15.18;13.73;;;;;;;9.08;54.96;99089.63;4972654;28;20031;-77
2023/03/25 05:06:38;;;;;;;16.30;13.35;;;;;;;9.84;54.96;99206.28;5004233;28;20121;-77
2023/03/25 05:09:05;;;;;;;15.55;12.50;;;;;;;9.88;55.44;99204.94;4972820;28;20118;-77
2023/03/25 05:11:32;;;;;;;15.32;12.02;;;;;;;9.90;55.37;99200.28;4972657;28;20509;-77
2023/03/25 05:13:57;;;;;;;17.90;14.10;;;;;;;9.51;54.86;99129.34;4972580;28;20034;-77
2023/03/25 05:16:23;;;;;;;24.30;16.65;;;;;;;9.94;55.37;99201.56;4972584;28;20420;-77
2023/03/25 05:18:48;;;;;;;19.10;15.40;;;;;;;9.60;54.77;99137.97;4972398;28;20501;-77
2023/03/25 05:21:14;;;;;;;18.02;15.73;;;;;;;9.75;55.06;99155.47;4972910;28;20031;-77
2023/03/25 05:23:40;;;;;;;16.95;15.25;;;;;;;9.56;54.72;99134.91;4972818;28;20023;-77
2023/03/25 05:26:07;;;;;;;17.63;15.80;;;;;;;9.53;54.57;99128.16;4972603;28;20022;-77
2023/03/25 05:28:32;;;;;;;17.85;14.57;;;;;;;9.71;54.76;99161.28;4972483;28;20030;-77
2023/03/25 05:30:58;;;;;;;21.02;17.15;;;;;;;9.23;55.10;99093.09;4987421;28;20034;-77
2023/03/25 05:33:24;;;;;;;22.55;17.00;;;;;;;9.42;55.60;99125.97;4972457;28;20471;-77
2023/03/25 05:35:49;;;;;;;17.63;15.63;;;;;;;10.00;55.28;99200.84;4972679;28;20053;-77
2023/03/25 05:38:17;;;;;;;18.75;15.43;;;;;;;9.52;54.95;99102.00;4972352;28;20484;-77
2023/03/25 05:40:47;;;;;;;18.67;14.90;;;;;;;10.17;55.16;99212.81;4972402;28;20459;-77
2023/03/25 05:43:14;;;;;;;19.60;15.18;;;;;;;9.84;54.93;99146.47;4972382;28;20034;-77
2023/03/25 05:45:40;;;;;;;17.55;14.23;;;;;;;10.29;54.74;99205.28;4972433;28;20416;-77
2023/03/25 05:48:07;;;;;;;14.30;12.38;;;;;;;10.05;54.53;99137.81;4972274;28;20030;-77
2023/03/25 05:50:32;;;;;;;13.98;11.50;;;;;;;10.46;54.88;99198.00;4970924;28;20467;-77
2023/03/25 05:52:58;;;;;;;15.88;10.80;;;;;;;10.02;54.98;99124.16;4972029;28;20039;-77
2023/03/25 05:55:24;;;;;;;13.48;10.90;;;;;;;9.94;55.14;99105.81;4972154;28;20023;-77
2023/03/25 05:57:50;;;;;;;13.40;11.57;;;;;;;10.19;54.65;99142.22;4972396;28;20496;-77
2023/03/25 06:00:18;;;;;;;15.75;12.70;;;;;;;10.59;54.69;99195.50;4971984;28;20063;-77
2023/03/25 06:02:44;;;;;;;15.07;13.48;;;;;;;10.63;55.40;99190.69;4972183;28;20063;-77
2023/03/25 06:05:12;;;;;;;16.33;13.90;;;;;;;10.41;55.25;99143.13;4975295;28;20058;-77
2023/03/25 06:07:42;;;;;;;16.77;14.38;;;;;;;10.40;55.01;99117.75;4974619;28;20027;-77
2023/03/25 06:10:11;;;;;;;16.70;13.75;;;;;;;10.93;54.98;99194.03;4975684;28;20093;-77
2023/03/25 06:12:38;;;;;;;16.15;13.68;;;;;;;10.71;55.23;99150.97;4976044;28;20090;-77
2023/03/25 06:15:16;;;;;;;15.20;12.50;;;;;;;10.71;54.89;99150.97;4975988;28;20022;-77
2023/03/25 06:17:45;;;;;;;15.02;13.50;;;;;;;10.67;54.86;99126.75;4975805;28;20023;-77
2023/03/25 06:20:12;;;;;;;15.05;12.50;;;;;;;11.30;54.56;99198.25;4975599;28;20408;-77
2023/03/25 06:22:43;;;;;;;15.23;13.32;;;;;;;11.36;54.73;99202.78;4974355;28;20089;-77
2023/03/25 06:25:17;;;;;;;15.75;14.02;;;;;;;11.44;54.69;99198.16;4975764;28;20411;-77
2023/03/25 06:27:44;;;;;;;14.77;12.98;;;;;;;11.56;54.61;99193.16;4975502;28;20031;-77
2023/03/25 06:30:13;;;;;;;14.05;12.55;;;;;;;11.56;54.29;99185.22;4975334;28;20027;-77
2023/03/25 06:32:39;;;;;;;16.73;14.93;;;;;;;11.63;53.88;99186.09;4974194;28;20023;-77
2023/03/25 06:35:08;;;;;;;18.42;13.80;;;;;;;11.84;54.24;99201.09;4975600;28;20113;-77
2023/03/25 06:37:33;;;;;;;16.70;14.13;;;;;;;11.55;54.07;99141.28;4975483;28;20086;-77
2023/03/25 06:39:59;;;;;;;17.67;15.35;;;;;;;11.88;53.82;99175.06;4975392;28;20027;-77
2023/03/25 06:42:26;;;;;;;20.65;14.65;;;;;;;12.04;53.86;99191.47;4975153;28;20027;-77
2023/03/25 06:44:51;;;;;;;17.13;13.57;;;;;;;11.71;53.92;99127.75;4975222;28;20117;-77
2023/03/25 06:47:18;;;;;;;14.52;13.05;;;;;;;11.78;53.81;99133.09;4974971;28;20102;-77
2023/03/25 06:49:43;;;;;;;15.93;13.10;;;;;;;12.12;53.77;99173.78;4990042;28;20023;-77
2023/03/25 06:52:09;;;;;;;16.80;13.98;;;;;;;12.15;53.84;99160.16;4975067;28;20054;-77
2023/03/25 06:54:34;;;;;;;17.55;13.45;;;;;;;12.08;54.02;99160.97;4974972;28;20507;-77
2023/03/25 06:56:59;;;;;;;19.13;15.10;;;;;;;12.13;54.26;99141.03;4974986;28;20423;-77
2023/03/25 06:59:25;;;;;;;18.95;14.52;;;;;;;12.27;53.80;99145.34;4989608;28;20479;-77
2023/03/25 07:01:50;;;;;;;19.02;15.48;;;;;;;12.13;53.84;99114.56;4974887;28;20031;-77
2023/03/25 07:04:16;;;;;;;19.55;15.73;;;;;;;12.84;53.58;99215.63;4974916;28;20105;-77
2023/03/25 07:06:41;;;;;;;16.85;14.60;;;;;;;12.38;53.60;99136.84;4974744;28;20030;-77
2023/03/25 07:09:07;;;;;;;18.17;14.80;;;;;;;12.57;53.33;99140.53;4974593;28;20407;-77
2023/03/25 07:11:33;;;;;;;16.25;14.23;;;;;;;13.10;53.49;99207.72;4974679;28;20579;-77
2023/03/25 07:13:58;;;;;;;15.40;13.80;;;;;;;12.84;52.96;99166.09;4974636;28;20074;-77
2023/03/25 07:16:24;;;;;;;16.58;14.20;;;;;;;13.03;52.73;99165.28;4974348;28;20518;-77
2023/03/25 07:18:50;;;;;;;21.98;16.17;;;;;;;13.22;52.58;99184.91;4989170;28;20078;-78
2023/03/25 07:21:17;;;;;;;19.63;15.75;;;;;;;13.51;52.63;99212.06;4974564;28;20034;-78
2023/03/25 07:23:43;;;;;;;18.65;15.52;;;;;;;13.58;52.58;99204.91;4974607;28;20031;-77
2023/03/25 07:26:08;;;;;;;17.58;15.68;;;;;;;13.66;52.34;99204.69;4974378;28;20027;-78
2023/03/25 07:28:34;;;;;;;16.45;13.88;;;;;;;13.52;52.10;99169.41;4974261;28;20023;-77
2023/03/25 07:30:59;;;;;;;18.23;13.30;;;;;;;13.44;51.79;99161.69;4974238;28;20026;-77
2023/03/25 07:33:25;;;;;;;19.10;14.60;;;;;;;13.87;51.66;99196.50;4974569;28;20110;-77
2023/03/25 07:35:50;;;;;;;14.60;12.57;;;;;;;13.44;51.31;99119.25;4974361;28;20037;-77
2023/03/25 07:38:16;;;;;;;16.00;13.25;;;;;;;13.19;51.40;99083.75;4974592;28;20462;-77
2023/03/25 07:40:41;;;;;;;12.77;11.02;;;;;;;14.04;51.07;99191.56;4974327;28;20125;-77
2023/03/25 07:43:07;;;;;;;13.65;12.13;;;;;;;13.74;50.79;99132.84;4974150;28;20119;-77
2023/03/25 07:45:32;;;;;;;15.25;11.52;;;;;;;13.96;50.52;99147.47;4974104;28;20030;-77
2023/03/25 07:48:00;;;;;;;16.77;12.82;;;;;;;13.82;50.58;99113.22;4988823;28;20027;-77
2023/03/25 07:50:25;;;;;;;15.07;12.18;;;;;;;14.03;50.27;99144.78;4973929;28;20475;-77
2023/03/25 07:52:51;;;;;;;12.35;11.00;;;;;;;13.91;50.39;99120.75;4973779;28;20061;-77
2023/03/25 07:55:16;;;;;;;14.10;12.60;;;;;;;14.12;49.97;99118.81;4973904;28;20023;-77
2023/03/25 07:57:42;;;;;;;18.20;13.43;;;;;;;14.63;49.86;99195.84;4973927;28;20424;-77
2023/03/25 08:00:09;;;;;;;14.82;12.23;;;;;;;14.21;49.52;99114.94;4973862;28;20134;-77
2023/03/25 08:02:35;;;;;;;15.85;13.00;;;;;;;14.79;49.39;99192.69;4973779;28;20038;-77
2023/03/25 08:05:01;;;;;;;13.80;12.48;;;;;;;14.40;49.32;99115.84;4973080;28;20031;-77
2023/03/25 08:07:27;;;;;;;13.18;11.60;;;;;;;14.96;49.50;99187.72;4972903;28;20027;-76
2023/03/25 08:09:52;;;;;;;17.92;14.45;;;;;;;14.63;49.02;99111.66;4973431;28;20161;-76
2023/03/25 08:12:18;;;;;;;18.23;14.50;;;;;;;14.99;48.92;99144.75;4985435;28;20022;-76
2023/03/25 08:14:44;;;;;;;20.40;16.08;;;;;;;14.72;48.93;99098.91;4973365;28;20499;-77
2023/03/25 08:17:09;;;;;;;16.10;14.43;;;;;;;15.33;48.97;99170.03;4972876;28;20023;-77
2023/03/25 08:19:35;;;;;;;16.83;14.18;;;;;;;15.07;48.74;99114.41;4982169;28;20105;-77
2023/03/25 08:22:01;;;;;;;19.50;15.23;;;;;;;15.01;48.21;99084.19;4992914;28;20022;-77
2023/03/25 08:24:28;;;;;;;17.83;14.70;;;;;;;15.25;48.21;99109.16;4976543;28;20492;-77
2023/03/25 08:26:54;;;;;;;18.30;15.07;;;;;;;15.35;47.57;99103.31;4972739;28;20523;-77
2023/03/25 08:29:20;;;;;;;17.42;14.82;;;;;;;14.83;47.51;99022.97;4972660;28;20023;-77
2023/03/25 08:31:50;;;;;;;18.25;13.95;;;;;;;15.84;47.43;99156.50;4970973;28;20420;-77
2023/03/25 08:34:17;;;;;;;16.10;14.10;;;;;;;15.32;46.99;99074.50;4986470;28;20484;-76
2023/03/25 08:36:43;;;;;;;15.88;14.27;;;;;;;15.84;46.59;99131.72;4971731;28;20026;-77
2023/03/25 08:39:10;;;;;;;14.75;12.57;;;;;;;16.09;46.44;99160.94;4987871;28;20033;-76
2023/03/25 08:41:37;;;;;;;13.50;11.50;;;;;;;16.18;46.33;99160.41;4987514;28;20416;-77
2023/03/25 08:44:03;;;;;;;13.10;11.70;;;;;;;16.34;45.95;99160.84;4973166;28;20058;-77
2023/03/25 08:46:28;;;;;;;12.30;11.00;;;;;;;16.04;45.83;99094.22;4986302;28;20106;-77
2023/03/25 08:48:54;;;;;;;12.80;10.90;;;;;;;16.59;45.82;99150.06;5004052;28;20030;-77
2023/03/25 08:51:20;;;;;;;12.10;10.90;;;;;;;16.77;45.41;99147.38;4972442;28;20489;-77
2023/03/25 08:53:46;;;;;;;12.00;10.80;;;;;;;16.86;44.66;99135.34;4972448;28;20034;-77
2023/03/25 08:56:11;;;;;;;14.13;11.07;;;;;;;17.08;44.56;99151.63;4987369;28;20033;-77
2023/03/25 08:58:36;;;;;;;13.98;12.07;;;;;;;17.23;44.09;99145.88;4972374;28;20034;-77
2023/03/25 09:01:03;;;;;;;12.65;11.35;;;;;;;17.29;43.91;99144.94;4972661;28;20133;-77
2023/03/25 09:03:28;;;;;;;12.63;11.43;;;;;;;16.99;43.52;99086.31;4972769;28;20023;-77
2023/03/25 09:05:54;;;;;;;14.82;10.55;;;;;;;17.51;43.23;99139.84;4972632;28;20077;-77
2023/03/25 09:08:20;;;;;;;11.20;10.02;;;;;;;17.63;42.86;99145.97;4972542;28;21653;-77
2023/03/25 09:10:46;;;;;;;13.35;11.82;;;;;;;17.78;42.66;99139.16;4971989;28;20039;-78
2023/03/25 09:13:11;;;;;;;12.10;10.90;;;;;;;17.31;42.40;99028.94;4970690;28;20153;-77
2023/03/25 09:15:36;;;;;;;15.32;11.25;;;;;;;17.65;41.92;99061.13;4972659;28;20484;-77
2023/03/25 09:18:02;;;;;;;12.35;10.65;;;;;;;18.01;41.78;99111.59;4971473;28;20034;-77
2023/03/25 09:20:27;;;;;;;11.07;9.93;;;;;;;17.72;41.64;99035.94;4972461;28;20035;-77
2023/03/25 09:22:53;;;;;;;12.27;10.65;;;;;;;18.39;41.35;99119.03;4970852;28;20039;-77
2023/03/25 09:25:19;;;;;;;12.18;10.93;;;;;;;18.42;41.24;99086.47;4971658;28;20843;-77
2023/03/25 09:27:44;;;;;;;11.85;10.55;;;;;;;18.37;40.77;99043.59;4971461;28;20035;-77
2023/03/25 09:30:10;;;;;;;11.10;10.02;;;;;;;18.48;40.33;99023.22;5003211;28;20114;-77
2023/03/25 09:32:35;;;;;;;10.48;9.38;;;;;;;18.81;40.18;99051.06;4972183;28;20038;-77
2023/03/25 09:35:01;;;;;;;12.55;11.00;;;;;;;18.89;39.91;99032.75;4970392;28;20042;-77
2023/03/25 09:37:26;;;;;;;12.38;11.18;;;;;;;19.11;39.55;99046.19;4986390;28;20074;-77
2023/03/25 09:39:52;;;;;;;12.80;11.05;;;;;;;18.95;39.32;99007.69;4990616;28;20030;-77
2023/03/25 09:42:41;;;;;;;12.27;10.77;;;;;;;19.52;39.09;99077.06;4975879;28;20022;-77
2023/03/25 09:45:19;;;;;;;12.82;10.85;;;;;;;19.67;38.84;99076.47;5006547;28;20054;-77
2023/03/25 09:48:00;;;;;;;12.02;10.82;;;;;;;19.75;38.50;99068.00;4975832;28;20031;-77
2023/03/25 09:50:29;;;;;;;12.40;10.38;;;;;;;19.83;38.54;99058.69;4976141;28;20025;-77
2023/03/25 09:53:03;;;;;;;11.98;10.73;;;;;;;20.15;38.31;99067.69;4972789;28;20074;-77
2023/03/25 09:55:33;;;;;;;11.52;10.35;;;;;;;20.38;38.14;99060.41;4970678;28;20158;-77
2023/03/25 09:58:21;;;;;;;10.35;9.32;;;;;;;20.62;37.39;99059.03;4970742;28;20465;-77
2023/03/25 10:01:02;;;;;;;10.07;9.00;;;;;;;20.12;37.16;98955.59;4972617;28;20504;-77
2023/03/25 10:03:47;;;;;;;10.63;8.88;;;;;;;20.67;37.22;99010.78;4973560;28;20084;-77
2023/03/25 10:06:18;;;;;;;9.70;8.73;;;;;;;21.09;36.75;99034.19;4973840;28;20073;-77
2023/03/25 10:09:19;;;;;;;9.32;8.45;;;;;;;21.31;36.12;99037.59;4971757;28;20027;-77
2023/03/25 10:12:15;;;;;;;11.87;8.90;;;;;;;21.39;34.37;99030.91;4969393;28;20047;-77
2023/03/25 10:15:00;;;;;;;12.85;9.38;;;;;;;21.07;35.84;98958.50;4964487;28;20038;-77
2023/03/25 10:17:35;;;;;;;9.38;8.15;;;;;;;21.40;35.85;98986.88;4989862;28;20427;-77
2023/03/25 10:20:42;;;;;;;10.88;8.27;;;;;;;21.67;35.60;99010.91;4975543;28;20031;-77
2023/03/25 10:23:33;;;;;;;8.32;7.53;;;;;;;21.78;35.40;98983.81;4962165;28;20047;-77
2023/03/25 10:26:05;;;;;;;7.35;6.57;;;;;;;21.36;35.53;98895.28;4973980;28;20085;-77
2023/03/25 10:28:38;;;;;;;8.10;7.30;;;;;;;22.25;35.25;98995.50;5005089;28;20112;-77
2023/03/25 10:31:06;;;;;;;10.18;8.52;;;;;;;21.98;34.80;98929.28;4973472;28;20031;-77
2023/03/25 10:33:57;;;;;;;9.77;8.10;;;;;;;22.07;34.38;98913.47;4977839;28;20035;-77
2023/03/25 10:36:45;;;;;;;11.57;9.63;;;;;;;22.60;33.92;98981.25;4972030;28;20527;-77
2023/03/25 10:39:18;;;;;;;11.82;10.63;;;;;;;22.65;33.59;98974.00;4973350;28;20105;-77
2023/03/25 10:41:50;;;;;;;7.85;6.82;;;;;;;22.75;33.55;98957.84;4973272;28;20030;-77
2023/03/25 10:44:17;;;;;;;7.10;6.40;;;;;;;22.64;33.16;98918.56;4975179;28;20070;-77
2023/03/25 10:47:05;;;;;;;8.20;7.40;;;;;;;23.03;33.02;98956.47;4972181;28;20086;-77
2023/03/25 10:49:32;;;;;;;7.30;6.13;;;;;;;23.21;33.25;98949.69;4970663;28;20519;-77
2023/03/25 10:51:59;;;;;;;7.35;6.65;;;;;;;22.96;33.00;98894.03;4970037;28;20430;-77
2023/03/25 10:54:32;;;;;;;8.32;7.53;;;;;;;22.85;32.70;98888.94;4972844;28;20066;-77
2023/03/25 10:57:05;;;;;;;7.10;6.40;;;;;;;23.17;32.60;98894.78;4972158;28;20026;-77
2023/03/25 11:00:05;;;;;;;7.30;6.60;;;;;;;23.44;32.03;98907.84;4955272;28;20055;-77
2023/03/25 11:02:32;;;;;;;6.75;5.55;;;;;;;23.35;32.21;98887.97;5000246;28;20042;-77
2023/03/25 11:05:06;;;;;;;8.32;6.07;;;;;;;23.64;32.48;98912.34;4972171;28;20026;-77
2023/03/25 11:07:34;;;;;;;6.90;6.30;;;;;;;23.89;32.36;98931.09;4973008;28;20025;-77
2023/03/25 11:10:20;;;;;;;10.15;8.77;;;;;;;24.07;31.50;98927.72;4973506;28;20043;-77
2023/03/25 11:12:46;;;;;;;7.03;5.75;;;;;;;24.01;31.31;98901.88;5002916;28;20041;-77
2023/03/25 11:15:19;;;;;;;9.38;6.05;;;;;;;23.90;31.03;98867.97;4973191;28;20054;-77
2023/03/25 11:17:46;;;;;;;6.45;5.30;;;;;;;24.28;31.05;98906.00;4974375;28;20041;-77
2023/03/25 11:20:27;;;;;;;8.05;5.15;;;;;;;24.40;30.31;98901.03;4989492;28;20480;-77
2023/03/25 11:22:59;;;;;;;6.47;5.82;;;;;;;24.45;30.58;98890.19;4973713;28;20038;-77
2023/03/25 11:25:29;;;;;;;6.22;5.57;;;;;;;24.12;30.56;98796.59;4974322;28;20121;-77
2023/03/25 11:27:58;;;;;;;8.63;6.60;;;;;;;24.80;30.78;98880.16;4973139;28;20037;-77
2023/03/25 11:30:24;;;;;;;9.43;7.57;;;;;;;24.98;30.47;98882.13;4972635;28;20019;-77
2023/03/25 11:33:11;;;;;;;8.23;6.60;;;;;;;25.13;30.27;98875.72;4972222;28;20041;-77
2023/03/25 11:35:45;;;;;;;5.70;5.20;;;;;;;25.23;29.94;98862.09;4967258;28;20447;-78